Time;durP1;ratioP1;P1;durP2;ratioP2;P2;SDS_P1;SDS_P2;PMS_P1;PMS_P2;Temp;Humidity;BMP_temperature;BMP_pressure;BME280_temperature;BME280_humidity;BME280_pressure;Samples;Min_cycle;Max_cycle;Signal;HPM_P1;HPM_P2
2020/12/07 00:00:43;;;;;;;53.67;31.53;;;;;;;;;;2073162;28;20562;-53
2020/12/07 00:01:47;;;;;;;51.93;31.20;;;;;;;;;;2073434;28;20176;-57
2020/12/07 00:02:47;;;;;;;52.23;30.97;;;;;;;;;;2089033;28;20179;-55
2020/12/07 00:03:47;;;;;;;55.93;31.80;;;;;;;;;;2081451;28;20172;-55
2020/12/07 00:04:48;;;;;;;52.77;31.77;;;;;;;;;;2082964;28;20168;-58
2020/12/07 00:05:48;;;;;;;46.43;30.33;;;;;;;;;;2086232;28;20187;-57
2020/12/07 00:06:52;;;;;;;49.93;30.57;;;;;;;;;;2086635;28;20530;-52
2020/12/07 00:07:52;;;;;;;51.00;31.77;;;;;;;;;;2087878;28;20611;-57
2020/12/07 00:08:53;;;;;;;54.80;30.93;;;;;;;;;;2081855;28;20176;-54
2020/12/07 00:09:53;;;;;;;57.63;31.63;;;;;;;;;;2082177;28;20208;-54
2020/12/07 00:10:53;;;;;;;50.47;31.13;;;;;;;;;;2087632;28;20675;-56
2020/12/07 00:11:53;;;;;;;55.47;32.30;;;;;;;;;;2079170;28;20199;-55
2020/12/07 00:12:54;;;;;;;52.17;32.27;;;;;;;;;;2066671;28;20209;-55
2020/12/07 00:13:54;;;;;;;56.97;32.83;;;;;;;;;;2080996;28;20196;-57
2020/12/07 00:14:54;;;;;;;54.80;31.57;;;;;;;;;;2075541;28;20176;-53
2020/12/07 00:15:54;;;;;;;56.37;33.53;;;;;;;;;;2081120;28;20225;-55
2020/12/07 00:16:55;;;;;;;54.33;32.03;;;;;;;;;;2086474;28;20590;-56
2020/12/07 00:17:55;;;;;;;57.07;33.00;;;;;;;;;;2080965;28;20172;-54
2020/12/07 00:18:55;;;;;;;55.33;32.53;;;;;;;;;;2082177;28;20207;-58
2020/12/07 00:19:55;;;;;;;50.07;32.40;;;;;;;;;;2081872;28;20263;-57
2020/12/07 00:20:56;;;;;;;54.13;31.57;;;;;;;;;;2072437;28;20268;-58
2020/12/07 00:21:56;;;;;;;51.03;31.40;;;;;;;;;;2072633;28;20661;-58
2020/12/07 00:22:56;;;;;;;53.87;33.23;;;;;;;;;;2089616;28;20183;-57
2020/12/07 00:23:56;;;;;;;51.93;29.87;;;;;;;;;;2087801;28;20160;-55
2020/12/07 00:24:57;;;;;;;49.07;29.87;;;;;;;;;;2089591;28;20640;-53
2020/12/07 00:25:57;;;;;;;45.13;29.53;;;;;;;;;;2087132;28;20172;-59
2020/12/07 00:26:58;;;;;;;46.17;30.17;;;;;;;;;;2071648;28;20180;-54
2020/12/07 00:27:58;;;;;;;47.43;30.63;;;;;;;;;;2066313;28;20215;-56
2020/12/07 00:28:58;;;;;;;49.53;30.83;;;;;;;;;;2078577;28;20214;-55
2020/12/07 00:29:59;;;;;;;47.80;29.60;;;;;;;;;;2083747;28;20176;-53
2020/12/07 00:31:01;;;;;;;47.83;30.73;;;;;;;;;;2083934;28;20172;-56
2020/12/07 00:32:01;;;;;;;48.40;30.37;;;;;;;;;;2089303;28;20550;-56
2020/12/07 00:33:02;;;;;;;50.97;30.43;;;;;;;;;;2086747;28;20175;-57
2020/12/07 00:34:02;;;;;;;48.43;28.97;;;;;;;;;;2076793;28;20238;-57
2020/12/07 00:35:03;;;;;;;47.10;29.90;;;;;;;;;;2077554;28;20173;-56
2020/12/07 00:36:03;;;;;;;47.67;30.17;;;;;;;;;;2077012;28;21943;-54
2020/12/07 00:37:03;;;;;;;52.63;30.80;;;;;;;;;;2089745;28;20214;-60
2020/12/07 00:38:04;;;;;;;45.57;28.13;;;;;;;;;;2088084;28;20217;-58
2020/12/07 00:39:04;;;;;;;50.50;30.07;;;;;;;;;;2087471;28;20299;-58
2020/12/07 00:40:04;;;;;;;49.37;29.67;;;;;;;;;;2086820;28;20182;-58
2020/12/07 00:41:04;;;;;;;49.13;29.27;;;;;;;;;;2086459;28;20176;-54
2020/12/07 00:42:05;;;;;;;48.87;29.40;;;;;;;;;;2085029;28;20643;-57
2020/12/07 00:43:05;;;;;;;45.60;27.00;;;;;;;;;;2086915;28;20221;-56
2020/12/07 00:44:06;;;;;;;47.10;28.90;;;;;;;;;;2088373;28;20563;-57
2020/12/07 00:45:06;;;;;;;46.83;28.57;;;;;;;;;;2089610;28;20627;-59
2020/12/07 00:46:06;;;;;;;42.07;27.77;;;;;;;;;;2089358;28;20210;-57
2020/12/07 00:47:07;;;;;;;43.73;27.17;;;;;;;;;;2077052;28;20169;-56
2020/12/07 00:48:08;;;;;;;49.50;28.57;;;;;;;;;;2076406;28;20231;-57
2020/12/07 00:49:08;;;;;;;44.23;27.07;;;;;;;;;;2077194;28;20653;-53
2020/12/07 00:50:08;;;;;;;49.00;28.00;;;;;;;;;;2070266;28;20206;-59
2020/12/07 00:51:09;;;;;;;42.47;28.47;;;;;;;;;;2067912;28;20169;-55
2020/12/07 00:52:09;;;;;;;45.83;27.47;;;;;;;;;;2071793;28;20160;-55
2020/12/07 00:53:10;;;;;;;42.00;27.60;;;;;;;;;;2072203;28;20177;-56
2020/12/07 00:54:10;;;;;;;47.47;28.23;;;;;;;;;;2080136;28;20670;-54
2020/12/07 00:55:11;;;;;;;42.33;26.93;;;;;;;;;;2086823;28;20183;-53
2020/12/07 00:56:13;;;;;;;49.80;29.47;;;;;;;;;;2080068;28;20643;-54
2020/12/07 00:57:15;;;;;;;50.13;29.27;;;;;;;;;;2071808;28;20553;-56
2020/12/07 00:58:15;;;;;;;40.50;26.93;;;;;;;;;;2077189;28;20195;-57
2020/12/07 00:59:15;;;;;;;45.77;27.83;;;;;;;;;;2087748;28;20182;-53
2020/12/07 01:00:16;;;;;;;47.37;28.63;;;;;;;;;;2084293;28;20168;-57
2020/12/07 01:01:21;;;;;;;46.63;29.10;;;;;;;;;;2077809;28;20177;-57
2020/12/07 01:02:22;;;;;;;49.40;29.23;;;;;;;;;;2071805;28;20177;-56
2020/12/07 01:03:22;;;;;;;46.60;29.10;;;;;;;;;;2075125;28;20174;-57
2020/12/07 01:04:23;;;;;;;44.50;28.77;;;;;;;;;;2067785;28;20219;-57
2020/12/07 01:05:23;;;;;;;45.33;27.90;;;;;;;;;;2063703;28;20847;-53
2020/12/07 01:06:29;;;;;;;42.27;27.10;;;;;;;;;;2078291;28;20275;-57
2020/12/07 01:07:29;;;;;;;52.93;30.33;;;;;;;;;;2088569;28;20198;-55
2020/12/07 01:08:29;;;;;;;41.80;27.77;;;;;;;;;;2080949;28;20180;-53
2020/12/07 01:09:29;;;;;;;46.87;27.93;;;;;;;;;;2072309;28;20539;-52
2020/12/07 01:10:31;;;;;;;52.30;28.80;;;;;;;;;;2072430;28;20187;-56
2020/12/07 01:11:31;;;;;;;46.20;28.63;;;;;;;;;;2072052;28;20191;-56
2020/12/07 01:12:32;;;;;;;46.93;28.83;;;;;;;;;;2065705;28;20169;-55
2020/12/07 01:13:32;;;;;;;48.20;28.23;;;;;;;;;;2072083;28;20267;-56
2020/12/07 01:14:33;;;;;;;39.40;26.47;;;;;;;;;;2079095;28;20220;-51
2020/12/07 01:15:36;;;;;;;48.37;27.07;;;;;;;;;;2079752;28;20168;-56
2020/12/07 01:16:36;;;;;;;39.70;26.70;;;;;;;;;;2073855;28;20185;-58
2020/12/07 01:17:37;;;;;;;47.17;28.30;;;;;;;;;;2079820;28;20184;-53
2020/12/07 01:18:42;;;;;;;42.10;27.10;;;;;;;;;;2067017;28;20259;-53
2020/12/07 01:19:42;;;;;;;42.67;27.87;;;;;;;;;;2070499;28;20189;-59
2020/12/07 01:20:47;;;;;;;48.40;28.53;;;;;;;;;;2071889;28;20704;-56
2020/12/07 01:21:47;;;;;;;40.63;27.00;;;;;;;;;;2070779;28;20204;-54
2020/12/07 01:22:48;;;;;;;44.10;27.73;;;;;;;;;;2076958;28;20179;-57
2020/12/07 01:23:50;;;;;;;41.67;27.70;;;;;;;;;;2072296;28;20177;-56
2020/12/07 01:24:50;;;;;;;42.10;26.63;;;;;;;;;;2065765;28;20173;-57
2020/12/07 01:25:51;;;;;;;41.97;26.50;;;;;;;;;;2078409;28;20173;-58
2020/12/07 01:26:52;;;;;;;43.27;26.77;;;;;;;;;;2073915;28;20203;-54
2020/12/07 01:27:54;;;;;;;39.27;26.53;;;;;;;;;;2072202;28;20180;-55
2020/12/07 01:28:57;;;;;;;39.43;25.73;;;;;;;;;;2079472;28;20202;-58
2020/12/07 01:29:58;;;;;;;43.37;26.43;;;;;;;;;;2068892;28;21688;-55
2020/12/07 01:30:58;;;;;;;46.10;27.53;;;;;;;;;;2080679;28;20655;-54
2020/12/07 01:31:58;;;;;;;41.77;26.40;;;;;;;;;;2077522;28;20656;-54
2020/12/07 01:32:59;;;;;;;42.70;26.80;;;;;;;;;;2072040;28;20204;-54
2020/12/07 01:34:01;;;;;;;43.80;27.33;;;;;;;;;;2064012;28;20928;-51
2020/12/07 01:35:01;;;;;;;39.37;25.93;;;;;;;;;;2064497;28;20212;-54
2020/12/07 01:36:02;;;;;;;41.43;25.57;;;;;;;;;;2074726;28;20206;-54
2020/12/07 01:37:02;;;;;;;41.57;25.57;;;;;;;;;;2089192;28;20179;-52
2020/12/07 01:38:09;;;;;;;39.77;24.67;;;;;;;;;;2080721;28;20597;-54
2020/12/07 01:39:09;;;;;;;38.87;25.57;;;;;;;;;;2072514;28;20173;-57
2020/12/07 01:40:11;;;;;;;34.50;23.83;;;;;;;;;;2075887;28;20262;-54
2020/12/07 01:41:12;;;;;;;37.40;24.10;;;;;;;;;;2081445;28;20640;-56
2020/12/07 01:42:12;;;;;;;36.43;22.43;;;;;;;;;;2072439;28;20268;-56
2020/12/07 01:43:13;;;;;;;34.47;23.97;;;;;;;;;;2072515;28;20594;-50
2020/12/07 01:44:13;;;;;;;32.93;23.27;;;;;;;;;;2072415;28;20184;-53
2020/12/07 01:45:13;;;;;;;36.67;24.10;;;;;;;;;;2067880;28;20630;-56
2020/12/07 01:46:15;;;;;;;36.23;23.67;;;;;;;;;;2072092;28;20632;-54
2020/12/07 01:47:24;;;;;;;30.80;22.50;;;;;;;;;;2072492;28;20556;-57
2020/12/07 01:48:29;;;;;;;32.60;23.27;;;;;;;;;;2074216;28;20257;-54
2020/12/07 01:49:34;;;;;;;29.10;21.63;;;;;;;;;;2081069;28;20173;-57
2020/12/07 01:50:36;;;;;;;36.00;24.00;;;;;;;;;;2070875;28;20180;-55
2020/12/07 01:51:37;;;;;;;32.20;22.70;;;;;;;;;;2069156;28;20213;-57
2020/12/07 01:52:40;;;;;;;34.77;24.03;;;;;;;;;;2077648;28;20210;-59
2020/12/07 01:53:42;;;;;;;36.30;23.87;;;;;;;;;;2081276;28;20176;-55
2020/12/07 01:54:44;;;;;;;31.73;22.60;;;;;;;;;;2075140;28;20284;-56
2020/12/07 01:55:44;;;;;;;34.03;23.10;;;;;;;;;;2072537;28;20564;-56
2020/12/07 01:56:47;;;;;;;33.40;23.10;;;;;;;;;;2078664;28;20191;-56
2020/12/07 01:57:50;;;;;;;30.53;22.63;;;;;;;;;;2078738;28;20679;-56
2020/12/07 01:58:51;;;;;;;34.40;22.63;;;;;;;;;;2065222;28;20201;-57
2020/12/07 01:59:51;;;;;;;30.20;22.20;;;;;;;;;;2074622;28;20228;-55
2020/12/07 02:00:52;;;;;;;29.43;22.17;;;;;;;;;;2079725;28;20188;-52
2020/12/07 02:01:52;;;;;;;33.53;23.03;;;;;;;;;;2070958;28;20173;-56
2020/12/07 02:02:53;;;;;;;32.70;23.17;;;;;;;;;;2068189;28;20268;-55
2020/12/07 02:03:57;;;;;;;33.67;22.87;;;;;;;;;;2073008;28;20260;-57
2020/12/07 02:04:58;;;;;;;38.57;25.00;;;;;;;;;;2071582;28;20656;-57
2020/12/07 02:05:58;;;;;;;33.50;23.30;;;;;;;;;;2063559;28;20288;-56
2020/12/07 02:06:59;;;;;;;32.97;22.43;;;;;;;;;;2078462;28;21040;-55
2020/12/07 02:08:18;;;;;;;35.43;23.97;;;;;;;;;;2070028;28;20180;-57
2020/12/07 02:09:27;;;;;;;32.37;23.70;;;;;;;;;;2077172;28;20633;-54
2020/12/07 02:10:29;;;;;;;32.53;24.17;;;;;;;;;;2073347;28;20172;-54
2020/12/07 02:11:29;;;;;;;34.00;24.33;;;;;;;;;;2076887;28;20160;-51
2020/12/07 02:12:29;;;;;;;30.77;22.77;;;;;;;;;;2080576;28;20235;-53
2020/12/07 02:13:30;;;;;;;34.50;23.27;;;;;;;;;;2070222;28;20161;-56
2020/12/07 02:14:31;;;;;;;35.23;23.97;;;;;;;;;;2072301;28;20228;-56
2020/12/07 02:15:33;;;;;;;34.50;24.80;;;;;;;;;;2072258;28;20168;-54
2020/12/07 02:16:33;;;;;;;33.07;23.00;;;;;;;;;;2073625;28;20235;-52
2020/12/07 02:17:35;;;;;;;32.60;23.27;;;;;;;;;;2073137;28;20161;-57
2020/12/07 02:18:36;;;;;;;34.83;24.47;;;;;;;;;;2073282;28;20196;-53
2020/12/07 02:19:37;;;;;;;37.83;23.77;;;;;;;;;;2072662;28;20173;-54
2020/12/07 02:20:38;;;;;;;31.87;22.90;;;;;;;;;;2073032;28;20303;-53
2020/12/07 02:21:40;;;;;;;33.57;22.67;;;;;;;;;;2081456;28;20172;-54
2020/12/07 02:23:08;;;;;;;33.10;23.53;;;;;;;;;;2069291;28;20180;-53
2020/12/07 02:24:46;;;;;;;33.33;22.30;;;;;;;;;;2080502;28;20188;-55
2020/12/07 02:26:00;;;;;;;28.70;21.50;;;;;;;;;;2072271;28;20211;-55
2020/12/07 02:27:00;;;;;;;34.40;22.73;;;;;;;;;;2064215;28;20284;-53
2020/12/07 02:28:00;;;;;;;33.10;22.03;;;;;;;;;;2064395;28;20197;-55
2020/12/07 02:29:01;;;;;;;32.40;21.87;;;;;;;;;;2064322;28;20170;-54
2020/12/07 02:30:06;;;;;;;30.93;22.03;;;;;;;;;;2065812;28;20545;-56
2020/12/07 02:31:07;;;;;;;33.33;23.27;;;;;;;;;;2072603;28;20232;-52
2020/12/07 02:32:11;;;;;;;31.77;22.10;;;;;;;;;;2077172;28;20180;-53
2020/12/07 02:33:12;;;;;;;31.47;23.47;;;;;;;;;;2067500;28;21196;-56
2020/12/07 02:34:12;;;;;;;30.87;22.37;;;;;;;;;;2073295;28;20188;-55
2020/12/07 02:35:16;;;;;;;29.03;21.37;;;;;;;;;;2072617;28;20563;-54
2020/12/07 02:36:22;;;;;;;28.03;20.63;;;;;;;;;;2071302;28;20221;-53
2020/12/07 02:37:27;;;;;;;29.03;21.17;;;;;;;;;;2072714;28;20173;-54
2020/12/07 02:38:31;;;;;;;29.37;20.80;;;;;;;;;;2072878;28;20575;-52
2020/12/07 02:39:31;;;;;;;28.63;20.63;;;;;;;;;;2070759;28;20252;-51
2020/12/07 02:40:31;;;;;;;29.90;21.70;;;;;;;;;;2081307;28;20295;-52
2020/12/07 02:41:33;;;;;;;27.83;21.40;;;;;;;;;;2072218;28;20188;-55
2020/12/07 02:42:36;;;;;;;25.97;19.27;;;;;;;;;;2064907;28;20696;-55
2020/12/07 02:43:38;;;;;;;30.03;21.13;;;;;;;;;;2065241;28;20568;-56
2020/12/07 02:44:39;;;;;;;29.30;22.13;;;;;;;;;;2073272;28;20205;-54
2020/12/07 02:45:53;;;;;;;28.83;20.27;;;;;;;;;;2065081;28;20562;-51
2020/12/07 02:46:53;;;;;;;28.20;21.03;;;;;;;;;;2058218;28;20185;-53
2020/12/07 02:47:57;;;;;;;29.07;21.70;;;;;;;;;;2056875;28;20555;-55
2020/12/07 02:48:57;;;;;;;28.10;20.63;;;;;;;;;;2065984;28;20197;-56
2020/12/07 02:49:57;;;;;;;29.20;20.90;;;;;;;;;;2073037;28;20172;-51
2020/12/07 02:50:58;;;;;;;30.93;21.13;;;;;;;;;;2064881;28;20288;-58
2020/12/07 02:51:59;;;;;;;26.20;20.00;;;;;;;;;;2065161;28;20208;-57
2020/12/07 02:53:05;;;;;;;29.10;21.10;;;;;;;;;;2065785;28;20255;-56
2020/12/07 02:54:07;;;;;;;26.50;20.13;;;;;;;;;;2064981;28;20654;-53
2020/12/07 02:55:10;;;;;;;25.07;19.77;;;;;;;;;;2064789;28;20170;-58
2020/12/07 02:56:10;;;;;;;24.57;19.57;;;;;;;;;;2066310;28;20666;-62
2020/12/07 02:57:19;;;;;;;25.73;19.77;;;;;;;;;;2074726;28;20381;-57
2020/12/07 02:58:21;;;;;;;25.87;19.07;;;;;;;;;;2082056;28;20276;-59
2020/12/07 02:59:24;;;;;;;25.67;19.70;;;;;;;;;;2082237;28;20259;-56
2020/12/07 03:00:25;;;;;;;24.47;20.20;;;;;;;;;;2074016;28;20224;-55
2020/12/07 03:01:26;;;;;;;26.80;20.83;;;;;;;;;;2073855;28;20642;-54
2020/12/07 03:02:27;;;;;;;26.00;20.60;;;;;;;;;;2082666;28;20691;-57
2020/12/07 03:03:28;;;;;;;26.03;19.87;;;;;;;;;;2074698;28;20179;-55
2020/12/07 03:04:28;;;;;;;26.50;19.47;;;;;;;;;;2074708;28;20200;-57
2020/12/07 03:05:28;;;;;;;25.00;19.07;;;;;;;;;;2083229;28;20255;-58
2020/12/07 03:06:33;;;;;;;25.50;19.93;;;;;;;;;;2082918;28;20192;-60
2020/12/07 03:07:34;;;;;;;25.80;19.47;;;;;;;;;;2073769;28;20180;-54
2020/12/07 03:08:35;;;;;;;27.10;20.73;;;;;;;;;;2082021;28;20252;-58
2020/12/07 03:09:38;;;;;;;27.33;21.60;;;;;;;;;;2074057;28;20280;-53
2020/12/07 03:10:39;;;;;;;29.23;21.77;;;;;;;;;;2081526;28;20187;-55
2020/12/07 03:11:39;;;;;;;25.67;20.33;;;;;;;;;;2081645;28;20247;-53
2020/12/07 03:12:40;;;;;;;26.97;19.73;;;;;;;;;;2073312;28;20359;-58
2020/12/07 03:13:43;;;;;;;26.23;19.30;;;;;;;;;;2073947;28;20221;-56
2020/12/07 03:14:43;;;;;;;26.70;20.30;;;;;;;;;;2081816;28;20180;-53
2020/12/07 03:15:43;;;;;;;26.70;19.90;;;;;;;;;;2081535;28;20566;-56
2020/12/07 03:16:45;;;;;;;26.00;19.67;;;;;;;;;;2081687;28;20176;-57
2020/12/07 03:17:46;;;;;;;26.90;20.40;;;;;;;;;;2073506;28;20590;-53
2020/12/07 03:18:47;;;;;;;26.90;19.77;;;;;;;;;;2073109;28;20215;-55
2020/12/07 03:19:51;;;;;;;24.70;19.80;;;;;;;;;;2073589;28;20177;-57
2020/12/07 03:20:52;;;;;;;28.07;20.23;;;;;;;;;;2070270;28;20223;-55
2020/12/07 03:21:52;;;;;;;25.37;19.27;;;;;;;;;;2073522;28;20168;-57
2020/12/07 03:22:52;;;;;;;25.67;20.17;;;;;;;;;;2066888;28;20169;-56
2020/12/07 03:23:53;;;;;;;26.20;18.70;;;;;;;;;;2081667;28;20682;-57
2020/12/07 03:24:56;;;;;;;29.43;20.27;;;;;;;;;;2081040;28;20172;-57
2020/12/07 03:25:56;;;;;;;25.50;20.40;;;;;;;;;;2069988;28;20177;-57
2020/12/07 03:26:59;;;;;;;25.90;20.73;;;;;;;;;;2072149;28;20282;-55
2020/12/07 03:28:00;;;;;;;25.27;20.03;;;;;;;;;;2065312;28;20181;-57
2020/12/07 03:29:03;;;;;;;25.73;19.10;;;;;;;;;;2081183;28;20204;-54
2020/12/07 03:30:04;;;;;;;27.50;20.33;;;;;;;;;;2077486;28;20207;-53
2020/12/07 03:31:05;;;;;;;26.20;19.60;;;;;;;;;;2069083;28;20168;-56
2020/12/07 03:32:05;;;;;;;24.63;19.30;;;;;;;;;;2080699;28;20726;-56
2020/12/07 03:33:07;;;;;;;28.13;20.47;;;;;;;;;;2085230;28;20171;-57
2020/12/07 03:34:11;;;;;;;24.57;19.37;;;;;;;;;;2077272;28;20557;-58
2020/12/07 03:35:12;;;;;;;30.30;20.93;;;;;;;;;;2067622;28;20187;-58
2020/12/07 03:36:14;;;;;;;28.07;21.23;;;;;;;;;;2076658;28;20321;-56
2020/12/07 03:37:15;;;;;;;26.33;20.40;;;;;;;;;;2072042;28;20256;-57
2020/12/07 03:38:28;;;;;;;25.77;18.97;;;;;;;;;;2074110;28;20217;-57
2020/12/07 03:39:29;;;;;;;25.07;19.13;;;;;;;;;;2079404;28;20208;-57
2020/12/07 03:40:35;;;;;;;27.33;19.67;;;;;;;;;;2079809;28;20779;-58
2020/12/07 03:41:38;;;;;;;23.60;17.83;;;;;;;;;;2081456;28;20187;-54
2020/12/07 03:42:38;;;;;;;25.93;18.83;;;;;;;;;;2081384;28;20563;-56
2020/12/07 03:43:40;;;;;;;24.43;18.73;;;;;;;;;;2072702;28;20177;-55
2020/12/07 03:44:41;;;;;;;23.13;18.30;;;;;;;;;;2065063;28;20176;-56
2020/12/07 03:45:42;;;;;;;23.47;17.33;;;;;;;;;;2064756;28;20776;-55
2020/12/07 03:46:43;;;;;;;23.27;18.17;;;;;;;;;;2081673;28;20207;-57
2020/12/07 03:47:44;;;;;;;24.77;18.07;;;;;;;;;;2082812;28;20278;-56
2020/12/07 03:48:48;;;;;;;22.93;17.43;;;;;;;;;;2073209;28;20200;-56
2020/12/07 03:49:50;;;;;;;23.03;17.93;;;;;;;;;;2064882;28;20316;-57
2020/12/07 03:50:52;;;;;;;22.87;17.80;;;;;;;;;;2065574;28;20178;-58
2020/12/07 03:51:53;;;;;;;23.47;19.00;;;;;;;;;;2063038;28;20174;-59
2020/12/07 03:52:54;;;;;;;25.10;18.70;;;;;;;;;;2081353;28;20221;-56
2020/12/07 03:53:58;;;;;;;25.60;19.10;;;;;;;;;;2088128;28;20200;-58
2020/12/07 03:54:59;;;;;;;25.93;17.37;;;;;;;;;;2075381;28;20200;-56
2020/12/07 03:56:01;;;;;;;25.63;17.77;;;;;;;;;;2072998;28;20174;-57
2020/12/07 03:57:01;;;;;;;22.37;17.93;;;;;;;;;;2069816;28;20193;-54
2020/12/07 03:58:02;;;;;;;23.70;17.73;;;;;;;;;;2067374;28;20248;-57
2020/12/07 03:59:02;;;;;;;22.90;17.43;;;;;;;;;;2068391;28;20169;-57
2020/12/07 04:00:06;;;;;;;21.23;17.03;;;;;;;;;;2072286;28;20709;-59
2020/12/07 04:01:14;;;;;;;27.40;19.03;;;;;;;;;;2079300;28;20172;-56
2020/12/07 04:02:18;;;;;;;22.70;17.93;;;;;;;;;;2080613;28;20176;-58
2020/12/07 04:03:20;;;;;;;24.83;17.27;;;;;;;;;;2064976;28;20165;-60
2020/12/07 04:04:31;;;;;;;23.93;17.13;;;;;;;;;;2070523;28;20696;-57
2020/12/07 04:05:37;;;;;;;23.57;17.73;;;;;;;;;;2074881;28;20161;-55
2020/12/07 04:06:43;;;;;;;23.50;17.00;;;;;;;;;;2080173;28;20192;-57
2020/12/07 04:07:48;;;;;;;21.27;16.33;;;;;;;;;;2078646;28;20206;-55
2020/12/07 04:08:48;;;;;;;22.87;16.73;;;;;;;;;;2074550;28;20169;-55
2020/12/07 04:09:48;;;;;;;22.57;16.77;;;;;;;;;;2090099;28;20266;-54
2020/12/07 04:10:49;;;;;;;19.40;14.73;;;;;;;;;;2088890;28;20179;-54
2020/12/07 04:11:49;;;;;;;23.37;15.93;;;;;;;;;;2081393;28;20173;-55
2020/12/07 04:12:49;;;;;;;21.03;16.23;;;;;;;;;;2073330;28;20625;-56
2020/12/07 04:13:49;;;;;;;20.73;16.30;;;;;;;;;;2073418;28;20204;-57
2020/12/07 04:14:49;;;;;;;15.53;13.23;;;;;;;;;;2072907;28;20219;-58
2020/12/07 04:15:50;;;;;;;16.77;14.27;;;;;;;;;;2073031;28;20209;-54
2020/12/07 04:16:50;;;;;;;17.00;14.43;;;;;;;;;;2081767;28;20176;-55
2020/12/07 04:17:50;;;;;;;16.00;13.73;;;;;;;;;;2082989;28;20168;-53
2020/12/07 04:18:50;;;;;;;17.20;14.03;;;;;;;;;;2088046;28;20207;-53
2020/12/07 04:19:51;;;;;;;16.17;13.70;;;;;;;;;;2083163;28;20183;-55
2020/12/07 04:20:51;;;;;;;16.97;14.87;;;;;;;;;;2087938;28;20183;-53
2020/12/07 04:21:51;;;;;;;19.03;14.37;;;;;;;;;;2087644;28;20195;-58
2020/12/07 04:22:51;;;;;;;19.10;14.43;;;;;;;;;;2080931;28;20176;-54
2020/12/07 04:23:52;;;;;;;20.27;15.10;;;;;;;;;;2083106;28;20207;-57
2020/12/07 04:24:52;;;;;;;19.70;15.33;;;;;;;;;;2084366;28;20184;-57
2020/12/07 04:25:52;;;;;;;16.53;13.70;;;;;;;;;;2087865;28;20172;-56
2020/12/07 04:26:52;;;;;;;16.77;14.50;;;;;;;;;;2080108;28;20168;-56
2020/12/07 04:27:52;;;;;;;16.23;13.33;;;;;;;;;;2080323;28;20219;-56
2020/12/07 04:28:53;;;;;;;17.50;13.80;;;;;;;;;;2088040;28;20271;-53
2020/12/07 04:29:53;;;;;;;15.37;12.93;;;;;;;;;;2085183;28;20199;-53
2020/12/07 04:30:53;;;;;;;18.40;13.73;;;;;;;;;;2086766;28;20755;-54
2020/12/07 04:31:53;;;;;;;15.10;13.37;;;;;;;;;;2082543;28;20175;-53
2020/12/07 04:32:54;;;;;;;15.73;14.00;;;;;;;;;;2087869;28;20176;-53
2020/12/07 04:33:54;;;;;;;17.37;12.83;;;;;;;;;;2082704;28;20172;-57
2020/12/07 04:34:54;;;;;;;16.37;13.77;;;;;;;;;;2082359;28;20195;-57
2020/12/07 04:35:54;;;;;;;15.93;12.93;;;;;;;;;;2083577;28;20176;-54
2020/12/07 04:36:55;;;;;;;14.57;12.93;;;;;;;;;;2087547;28;20175;-56
2020/12/07 04:37:55;;;;;;;14.70;12.63;;;;;;;;;;2080955;28;20172;-55
2020/12/07 04:38:56;;;;;;;15.80;12.17;;;;;;;;;;2080826;28;20211;-55
2020/12/07 04:39:56;;;;;;;14.13;11.73;;;;;;;;;;2074851;28;20731;-58
2020/12/07 04:40:57;;;;;;;13.97;11.83;;;;;;;;;;2071298;28;20205;-54
2020/12/07 04:41:58;;;;;;;14.60;11.77;;;;;;;;;;2073136;28;20662;-58
2020/12/07 04:42:58;;;;;;;14.90;12.23;;;;;;;;;;2081932;28;20294;-60
2020/12/07 04:43:59;;;;;;;15.37;12.17;;;;;;;;;;2081782;28;20272;-57
2020/12/07 04:44:59;;;;;;;14.77;12.67;;;;;;;;;;2081934;28;20640;-59
2020/12/07 04:45:59;;;;;;;14.50;12.10;;;;;;;;;;2082940;28;20246;-59
2020/12/07 04:47:00;;;;;;;15.23;12.43;;;;;;;;;;2089655;28;20167;-58
2020/12/07 04:48:01;;;;;;;13.87;11.63;;;;;;;;;;2089980;28;20544;-54
2020/12/07 04:49:02;;;;;;;13.43;10.93;;;;;;;;;;2085471;28;20189;-58
2020/12/07 04:50:04;;;;;;;11.80;10.50;;;;;;;;;;2083197;28;20172;-57
2020/12/07 04:51:05;;;;;;;14.70;11.47;;;;;;;;;;2089919;28;20171;-56
2020/12/07 04:52:05;;;;;;;11.97;10.83;;;;;;;;;;2089741;28;20171;-56
2020/12/07 04:53:06;;;;;;;12.13;10.90;;;;;;;;;;2089855;28;20221;-55
2020/12/07 04:54:06;;;;;;;11.97;10.70;;;;;;;;;;2089714;28;20183;-57
2020/12/07 04:55:06;;;;;;;12.37;10.27;;;;;;;;;;2088707;28;20187;-55
2020/12/07 04:56:07;;;;;;;12.03;10.70;;;;;;;;;;2085127;28;20537;-54
2020/12/07 04:57:08;;;;;;;12.57;11.07;;;;;;;;;;2090033;28;20182;-51
2020/12/07 04:58:10;;;;;;;12.07;10.53;;;;;;;;;;2089035;28;20715;-54
2020/12/07 04:59:10;;;;;;;13.43;10.67;;;;;;;;;;2089307;28;20182;-54
2020/12/07 05:00:11;;;;;;;10.57;9.57;;;;;;;;;;2087944;28;20202;-56
2020/12/07 05:01:11;;;;;;;12.47;10.63;;;;;;;;;;2089654;28;20190;-53
2020/12/07 05:02:12;;;;;;;11.23;9.87;;;;;;;;;;2088452;28;20313;-52
2020/12/07 05:03:12;;;;;;;13.90;11.03;;;;;;;;;;2077180;28;20176;-52
2020/12/07 05:04:12;;;;;;;12.60;10.77;;;;;;;;;;2075507;28;20200;-53
2020/12/07 05:05:12;;;;;;;12.23;10.03;;;;;;;;;;2090238;28;20180;-56
2020/12/07 05:06:16;;;;;;;12.57;10.07;;;;;;;;;;2085931;28;20227;-56
2020/12/07 05:07:17;;;;;;;11.13;9.97;;;;;;;;;;2084169;28;20225;-57
2020/12/07 05:08:17;;;;;;;13.57;10.27;;;;;;;;;;2084350;28;20171;-58
2020/12/07 05:09:17;;;;;;;12.43;10.60;;;;;;;;;;2087845;28;20180;-58
2020/12/07 05:10:24;;;;;;;9.70;8.57;;;;;;;;;;2078103;28;20193;-55
2020/12/07 05:11:25;;;;;;;12.20;9.97;;;;;;;;;;2083461;28;20172;-59
2020/12/07 05:12:36;;;;;;;10.13;9.03;;;;;;;;;;2089662;28;20172;-54
2020/12/07 05:13:40;;;;;;;9.77;8.70;;;;;;;;;;2088510;28;20172;-56
2020/12/07 05:14:41;;;;;;;9.43;8.53;;;;;;;;;;2086692;28;20184;-57
2020/12/07 05:15:42;;;;;;;9.80;8.37;;;;;;;;;;2089865;28;20222;-57
2020/12/07 05:16:43;;;;;;;9.57;8.20;;;;;;;;;;2091259;28;20351;-58
2020/12/07 05:17:44;;;;;;;11.40;8.73;;;;;;;;;;2094400;28;20273;-57
2020/12/07 05:18:44;;;;;;;11.90;8.73;;;;;;;;;;2084901;28;20223;-58
2020/12/07 05:19:45;;;;;;;9.70;8.70;;;;;;;;;;2077869;28;20183;-53
2020/12/07 05:20:45;;;;;;;9.07;8.17;;;;;;;;;;2091662;28;20182;-58
2020/12/07 05:21:46;;;;;;;9.40;8.43;;;;;;;;;;2091483;28;20188;-56
2020/12/07 05:22:49;;;;;;;10.10;9.03;;;;;;;;;;2090404;28;20306;-56
2020/12/07 05:23:52;;;;;;;10.00;9.00;;;;;;;;;;2090926;28;20188;-55
2020/12/07 05:24:52;;;;;;;8.53;7.73;;;;;;;;;;2095461;28;20187;-56
2020/12/07 05:25:53;;;;;;;9.60;8.63;;;;;;;;;;2084714;28;20311;-54
2020/12/07 05:26:53;;;;;;;12.23;9.27;;;;;;;;;;2082745;28;20184;-57
2020/12/07 05:27:55;;;;;;;10.00;9.00;;;;;;;;;;2092868;28;20175;-58
2020/12/07 05:29:03;;;;;;;9.10;8.20;;;;;;;;;;2088123;28;20168;-58
2020/12/07 05:30:12;;;;;;;8.37;7.57;;;;;;;;;;2085206;28;20176;-58
2020/12/07 05:31:14;;;;;;;9.07;7.60;;;;;;;;;;2085502;28;20168;-60
2020/12/07 05:32:14;;;;;;;8.77;7.87;;;;;;;;;;2086103;28;20184;-55
2020/12/07 05:33:15;;;;;;;7.97;7.17;;;;;;;;;;2089577;28;20191;-59
2020/12/07 05:34:15;;;;;;;8.17;6.90;;;;;;;;;;2087400;28;20207;-53
2020/12/07 05:35:15;;;;;;;8.90;8.10;;;;;;;;;;2093260;28;20168;-56
2020/12/07 05:36:16;;;;;;;8.53;7.73;;;;;;;;;;2084486;28;20224;-58
2020/12/07 05:37:17;;;;;;;9.47;8.20;;;;;;;;;;2082522;28;20203;-53
2020/12/07 05:38:17;;;;;;;9.20;7.50;;;;;;;;;;2090943;28;20199;-58
2020/12/07 05:39:20;;;;;;;8.23;7.53;;;;;;;;;;2089040;28;20180;-52
2020/12/07 05:40:20;;;;;;;8.63;7.83;;;;;;;;;;2090996;28;20459;-57
2020/12/07 05:41:21;;;;;;;7.70;7.03;;;;;;;;;;2089360;28;20180;-55
2020/12/07 05:42:24;;;;;;;8.57;7.67;;;;;;;;;;2092768;28;20187;-56
2020/12/07 05:43:25;;;;;;;7.67;6.90;;;;;;;;;;2086719;28;20183;-50
2020/12/07 05:44:26;;;;;;;7.67;6.97;;;;;;;;;;2079405;28;20188;-55
2020/12/07 05:45:26;;;;;;;7.83;7.13;;;;;;;;;;2083838;28;20176;-51
2020/12/07 05:46:28;;;;;;;8.53;7.60;;;;;;;;;;2093003;28;20231;-56
2020/12/07 05:47:30;;;;;;;7.83;7.00;;;;;;;;;;2090823;28;20198;-50
2020/12/07 05:48:31;;;;;;;7.83;7.07;;;;;;;;;;2092409;28;20613;-53
2020/12/07 05:49:33;;;;;;;8.57;7.77;;;;;;;;;;2088870;28;20183;-53
2020/12/07 05:50:37;;;;;;;7.97;7.27;;;;;;;;;;2090930;28;20178;-54
2020/12/07 05:51:38;;;;;;;8.40;7.50;;;;;;;;;;2087508;28;20192;-57
2020/12/07 05:52:45;;;;;;;7.67;7.07;;;;;;;;;;2089779;28;20187;-55
2020/12/07 05:53:45;;;;;;;8.33;7.13;;;;;;;;;;2075577;28;20212;-57
2020/12/07 05:54:46;;;;;;;8.03;7.13;;;;;;;;;;2081456;28;20176;-55
2020/12/07 05:55:46;;;;;;;7.63;6.87;;;;;;;;;;2083652;28;20237;-51
2020/12/07 05:56:47;;;;;;;8.23;7.43;;;;;;;;;;2082276;28;20267;-55
2020/12/07 05:57:57;;;;;;;8.00;7.20;;;;;;;;;;2061068;28;20194;-55
2020/12/07 05:59:08;;;;;;;7.77;6.97;;;;;;;;;;2069507;28;20201;-55
2020/12/07 06:00:08;;;;;;;9.37;8.13;;;;;;;;;;2086899;28;20591;-53
2020/12/07 06:01:19;;;;;;;8.03;7.23;;;;;;;;;;2086387;28;20195;-54